Main page
METAR-TAF:

METAR-TAF

Airports :

London City Airport

London, England

latitude: 51-30N, longitude: 000-03E, elevation: 5 m

Current weather observation

The report was made 31 minutes ago, at 22:50 UTC
Wind 2 kt from the East
Temperature 15°C
Humidity 72%
Pressure 1001 hPa
Visibility: 6000 m

METAR: EGLC 222250Z AUTO 09002KT 6000 NCD 15/10 Q1001

Time: 00:21 (23:21 UTC)

Forecast

The report was made 4 hours and 17 minutes ago, at 19:04 UTC
Forecast valid from 22 at 19 UTC to 22 at 21 UTC
Wind 8 kt from the East
Visibility: 9000 m
Probability 40% :
Temporary
from 22 at 19 UTC to 22 at 21 UTC
Visibility 10 km or more
no clouds below 1500 m and no cumulonimbus

TAF: EGLC 221904Z 2219/2221 09008KT 9000 NSC PROB40 TEMPO 2219/2221 CAVOK

Weather observations and forecasts of more than 4000 airports (METAR and TAF reports).

The available stations are represented by yellow and red dots on the map.

Hover mouse over dot to see the name of the station.

Then click to see weather observations and forecasts.

To change the map : click on the green buttons with a black cross to zoom in, on the green button with a dash to zoom out, or on the green arrows for adjacent maps.


METAR-TAF: